Byron, Minnesota
Current Conditions -  °F | °C
As of 8:13 AM on Thursday 29 Jan 2015 (Local Time) from K9MN Reporting Station
Overcast Overcast  
Wind Chill: 20°   Ceiling: 1100
Heat Index: 32°   Visibility: 10mi
Dew Point: 29°   Wind: 20mph
Humidity: 89%   Direction: 300°WNW
Pressure: 30.04"   Gusts: 33mph
Location:  44.03°N, 92.65°W
Report Text: K9MN 291413Z AUTO 30017G29KT 260V340 10SM OVC011 00/M01 A3004 RMK AO1 T00011015
Loading
Personal Weather Stations






























Interactive Weather Map New forecast layout! Learn more

10-Day Weather Forecast

Advertisements
Track Severe Weather on mobile